sensor_id;sensor_type;location;lat;lon;timestamp;P1;durP1;ratioP1;P2;durP2;ratioP2
19741;SDS011;10028;48.822;11.854;2023-02-21T00:00:40;2.70;;;2.60;;
19741;SDS011;10028;48.822;11.854;2023-02-21T00:03:26;3.03;;;2.93;;
19741;SDS011;10028;48.822;11.854;2023-02-21T00:06:12;3.43;;;3.33;;
19741;SDS011;10028;48.822;11.854;2023-02-21T00:08:57;3.13;;;3.03;;
19741;SDS011;10028;48.822;11.854;2023-02-21T00:11:43;2.70;;;2.60;;
19741;SDS011;10028;48.822;11.854;2023-02-21T00:14:29;2.70;;;2.60;;
19741;SDS011;10028;48.822;11.854;2023-02-21T00:17:15;2.60;;;2.50;;
19741;SDS011;10028;48.822;11.854;2023-02-21T00:20:01;4.83;;;4.63;;
19741;SDS011;10028;48.822;11.854;2023-02-21T00:22:47;2.80;;;2.70;;
19741;SDS011;10028;48.822;11.854;2023-02-21T00:25:33;3.30;;;3.20;;
19741;SDS011;10028;48.822;11.854;2023-02-21T00:28:19;2.90;;;2.80;;
19741;SDS011;10028;48.822;11.854;2023-02-21T00:31:05;2.80;;;2.70;;
19741;SDS011;10028;48.822;11.854;2023-02-21T00:33:51;2.90;;;2.80;;
19741;SDS011;10028;48.822;11.854;2023-02-21T00:36:37;3.70;;;3.60;;
19741;SDS011;10028;48.822;11.854;2023-02-21T00:39:23;2.70;;;2.60;;
19741;SDS011;10028;48.822;11.854;2023-02-21T00:42:09;2.80;;;2.70;;
19741;SDS011;10028;48.822;11.854;2023-02-21T00:44:55;6.70;;;6.30;;
19741;SDS011;10028;48.822;11.854;2023-02-21T00:47:41;3.10;;;3.00;;
19741;SDS011;10028;48.822;11.854;2023-02-21T00:50:27;3.07;;;2.97;;
19741;SDS011;10028;48.822;11.854;2023-02-21T00:53:13;3.07;;;2.97;;
19741;SDS011;10028;48.822;11.854;2023-02-21T00:55:59;2.83;;;2.73;;
19741;SDS011;10028;48.822;11.854;2023-02-21T00:58:45;3.00;;;2.90;;
19741;SDS011;10028;48.822;11.854;2023-02-21T01:01:31;3.53;;;3.33;;
19741;SDS011;10028;48.822;11.854;2023-02-21T01:04:17;3.47;;;3.37;;
19741;SDS011;10028;48.822;11.854;2023-02-21T01:07:03;3.17;;;3.07;;
19741;SDS011;10028;48.822;11.854;2023-02-21T01:09:49;3.10;;;3.00;;
19741;SDS011;10028;48.822;11.854;2023-02-21T01:12:35;3.10;;;3.00;;
19741;SDS011;10028;48.822;11.854;2023-02-21T01:15:20;3.17;;;3.07;;
19741;SDS011;10028;48.822;11.854;2023-02-21T01:18:06;2.80;;;2.70;;
19741;SDS011;10028;48.822;11.854;2023-02-21T01:20:52;3.07;;;2.97;;
19741;SDS011;10028;48.822;11.854;2023-02-21T01:23:39;3.00;;;2.90;;
19741;SDS011;10028;48.822;11.854;2023-02-21T01:26:25;3.43;;;3.33;;
19741;SDS011;10028;48.822;11.854;2023-02-21T01:29:11;2.90;;;2.80;;
19741;SDS011;10028;48.822;11.854;2023-02-21T01:31:57;4.03;;;3.83;;
19741;SDS011;10028;48.822;11.854;2023-02-21T01:34:43;2.93;;;2.83;;
19741;SDS011;10028;48.822;11.854;2023-02-21T01:37:29;2.87;;;2.77;;
19741;SDS011;10028;48.822;11.854;2023-02-21T01:40:14;3.00;;;2.90;;
19741;SDS011;10028;48.822;11.854;2023-02-21T01:43:01;2.90;;;2.80;;
19741;SDS011;10028;48.822;11.854;2023-02-21T01:45:50;3.30;;;3.20;;
19741;SDS011;10028;48.822;11.854;2023-02-21T01:48:39;2.80;;;2.70;;
19741;SDS011;10028;48.822;11.854;2023-02-21T01:51:26;3.17;;;3.07;;
19741;SDS011;10028;48.822;11.854;2023-02-21T01:54:15;3.33;;;3.23;;
19741;SDS011;10028;48.822;11.854;2023-02-21T01:57:02;3.77;;;3.67;;
19741;SDS011;10028;48.822;11.854;2023-02-21T01:59:48;3.00;;;2.90;;
19741;SDS011;10028;48.822;11.854;2023-02-21T02:02:39;3.00;;;2.90;;
19741;SDS011;10028;48.822;11.854;2023-02-21T02:05:57;2.90;;;2.80;;
19741;SDS011;10028;48.822;11.854;2023-02-21T02:08:46;3.00;;;2.90;;
19741;SDS011;10028;48.822;11.854;2023-02-21T02:22:44;3.20;;;3.10;;
19741;SDS011;10028;48.822;11.854;2023-02-21T02:28:32;3.23;;;3.13;;
19741;SDS011;10028;48.822;11.854;2023-02-21T02:37:38;3.00;;;2.90;;
19741;SDS011;10028;48.822;11.854;2023-02-21T02:40:13;3.43;;;3.33;;
19741;SDS011;10028;48.822;11.854;2023-02-21T02:43:05;3.00;;;2.90;;
19741;SDS011;10028;48.822;11.854;2023-02-21T02:48:26;3.33;;;3.23;;
19741;SDS011;10028;48.822;11.854;2023-02-21T02:51:07;3.97;;;3.83;;
19741;SDS011;10028;48.822;11.854;2023-02-21T02:53:37;3.20;;;3.10;;
19741;SDS011;10028;48.822;11.854;2023-02-21T02:56:06;3.43;;;3.33;;
19741;SDS011;10028;48.822;11.854;2023-02-21T02:58:39;2.90;;;2.80;;
19741;SDS011;10028;48.822;11.854;2023-02-21T03:09:33;3.00;;;2.90;;
19741;SDS011;10028;48.822;11.854;2023-02-21T03:14:59;3.17;;;3.07;;
19741;SDS011;10028;48.822;11.854;2023-02-21T03:17:42;3.20;;;3.10;;
19741;SDS011;10028;48.822;11.854;2023-02-21T03:20:18;3.83;;;3.73;;
19741;SDS011;10028;48.822;11.854;2023-02-21T03:22:46;3.97;;;3.77;;
19741;SDS011;10028;48.822;11.854;2023-02-21T03:25:16;3.10;;;3.00;;
19741;SDS011;10028;48.822;11.854;2023-02-21T03:27:45;3.37;;;3.27;;
19741;SDS011;10028;48.822;11.854;2023-02-21T03:30:13;3.50;;;3.40;;
19741;SDS011;10028;48.822;11.854;2023-02-21T03:32:45;2.93;;;2.83;;
19741;SDS011;10028;48.822;11.854;2023-02-21T03:35:15;3.50;;;3.40;;
19741;SDS011;10028;48.822;11.854;2023-02-21T03:37:43;3.33;;;3.23;;
19741;SDS011;10028;48.822;11.854;2023-02-21T03:40:19;3.40;;;3.30;;
19741;SDS011;10028;48.822;11.854;2023-02-21T03:42:52;4.53;;;4.23;;
19741;SDS011;10028;48.822;11.854;2023-02-21T03:45:20;3.70;;;3.60;;
19741;SDS011;10028;48.822;11.854;2023-02-21T03:47:48;3.30;;;3.20;;
19741;SDS011;10028;48.822;11.854;2023-02-21T03:50:15;3.77;;;3.63;;
19741;SDS011;10028;48.822;11.854;2023-02-21T03:52:42;3.00;;;2.90;;
19741;SDS011;10028;48.822;11.854;2023-02-21T03:55:10;3.20;;;3.10;;
19741;SDS011;10028;48.822;11.854;2023-02-21T03:57:37;3.30;;;3.20;;
19741;SDS011;10028;48.822;11.854;2023-02-21T04:00:04;3.47;;;3.37;;
19741;SDS011;10028;48.822;11.854;2023-02-21T04:02:31;3.10;;;3.00;;
19741;SDS011;10028;48.822;11.854;2023-02-21T04:04:59;3.23;;;3.13;;
19741;SDS011;10028;48.822;11.854;2023-02-21T04:07:26;3.20;;;3.10;;
19741;SDS011;10028;48.822;11.854;2023-02-21T04:09:53;3.53;;;3.43;;
19741;SDS011;10028;48.822;11.854;2023-02-21T04:12:20;3.50;;;3.40;;
19741;SDS011;10028;48.822;11.854;2023-02-21T04:14:48;3.37;;;3.27;;
19741;SDS011;10028;48.822;11.854;2023-02-21T04:17:17;3.27;;;3.17;;
19741;SDS011;10028;48.822;11.854;2023-02-21T04:19:44;3.20;;;3.10;;
19741;SDS011;10028;48.822;11.854;2023-02-21T04:22:12;3.50;;;3.40;;
19741;SDS011;10028;48.822;11.854;2023-02-21T04:24:39;3.33;;;3.23;;
19741;SDS011;10028;48.822;11.854;2023-02-21T04:27:06;3.20;;;3.10;;
19741;SDS011;10028;48.822;11.854;2023-02-21T04:29:33;3.30;;;3.20;;
19741;SDS011;10028;48.822;11.854;2023-02-21T04:32:01;3.08;;;2.97;;
19741;SDS011;10028;48.822;11.854;2023-02-21T04:34:28;3.20;;;3.10;;
19741;SDS011;10028;48.822;11.854;2023-02-21T04:36:55;3.40;;;3.30;;
19741;SDS011;10028;48.822;11.854;2023-02-21T04:39:22;3.10;;;3.00;;
19741;SDS011;10028;48.822;11.854;2023-02-21T04:41:50;3.20;;;3.10;;
19741;SDS011;10028;48.822;11.854;2023-02-21T04:44:17;3.30;;;3.20;;
19741;SDS011;10028;48.822;11.854;2023-02-21T04:46:44;3.10;;;3.00;;
19741;SDS011;10028;48.822;11.854;2023-02-21T04:49:11;3.43;;;3.33;;
19741;SDS011;10028;48.822;11.854;2023-02-21T04:51:39;3.10;;;3.00;;
19741;SDS011;10028;48.822;11.854;2023-02-21T04:54:06;3.27;;;3.17;;
19741;SDS011;10028;48.822;11.854;2023-02-21T04:56:33;3.50;;;3.40;;
19741;SDS011;10028;48.822;11.854;2023-02-21T04:59:00;3.10;;;3.00;;
19741;SDS011;10028;48.822;11.854;2023-02-21T05:01:28;3.30;;;3.20;;
19741;SDS011;10028;48.822;11.854;2023-02-21T05:03:57;3.63;;;3.53;;
19741;SDS011;10028;48.822;11.854;2023-02-21T05:06:25;3.47;;;3.37;;
19741;SDS011;10028;48.822;11.854;2023-02-21T05:08:53;3.30;;;3.20;;
19741;SDS011;10028;48.822;11.854;2023-02-21T05:11:21;3.40;;;3.30;;
19741;SDS011;10028;48.822;11.854;2023-02-21T05:13:49;3.63;;;3.53;;
19741;SDS011;10028;48.822;11.854;2023-02-21T05:16:17;3.20;;;3.10;;
19741;SDS011;10028;48.822;11.854;2023-02-21T05:18:45;3.53;;;3.43;;
19741;SDS011;10028;48.822;11.854;2023-02-21T05:21:13;3.40;;;3.30;;
19741;SDS011;10028;48.822;11.854;2023-02-21T05:23:41;3.27;;;3.17;;
19741;SDS011;10028;48.822;11.854;2023-02-21T05:26:25;3.20;;;3.10;;
19741;SDS011;10028;48.822;11.854;2023-02-21T05:28:55;3.33;;;3.23;;
19741;SDS011;10028;48.822;11.854;2023-02-21T05:31:22;3.20;;;3.10;;
19741;SDS011;10028;48.822;11.854;2023-02-21T05:33:49;3.37;;;3.27;;
19741;SDS011;10028;48.822;11.854;2023-02-21T05:36:17;3.53;;;3.43;;
19741;SDS011;10028;48.822;11.854;2023-02-21T05:38:48;3.47;;;3.37;;
19741;SDS011;10028;48.822;11.854;2023-02-21T05:41:17;3.67;;;3.57;;
19741;SDS011;10028;48.822;11.854;2023-02-21T05:43:45;3.70;;;3.60;;
19741;SDS011;10028;48.822;11.854;2023-02-21T05:48:54;3.13;;;3.03;;
19741;SDS011;10028;48.822;11.854;2023-02-21T05:51:22;3.27;;;3.17;;
19741;SDS011;10028;48.822;11.854;2023-02-21T05:53:50;3.40;;;3.30;;
19741;SDS011;10028;48.822;11.854;2023-02-21T05:56:17;3.30;;;3.20;;
19741;SDS011;10028;48.822;11.854;2023-02-21T05:58:45;3.30;;;3.20;;
19741;SDS011;10028;48.822;11.854;2023-02-21T06:01:12;3.43;;;3.33;;
19741;SDS011;10028;48.822;11.854;2023-02-21T06:03:40;3.20;;;3.10;;
19741;SDS011;10028;48.822;11.854;2023-02-21T06:06:08;3.40;;;3.30;;
19741;SDS011;10028;48.822;11.854;2023-02-21T06:08:45;3.13;;;3.03;;
19741;SDS011;10028;48.822;11.854;2023-02-21T06:11:14;3.20;;;3.10;;
19741;SDS011;10028;48.822;11.854;2023-02-21T06:13:49;3.30;;;3.20;;
19741;SDS011;10028;48.822;11.854;2023-02-21T06:16:17;3.10;;;3.00;;
19741;SDS011;10028;48.822;11.854;2023-02-21T06:18:44;3.20;;;3.10;;
19741;SDS011;10028;48.822;11.854;2023-02-21T06:21:16;3.30;;;3.20;;
19741;SDS011;10028;48.822;11.854;2023-02-21T06:23:43;3.67;;;3.57;;
19741;SDS011;10028;48.822;11.854;2023-02-21T06:26:10;3.30;;;3.20;;
19741;SDS011;10028;48.822;11.854;2023-02-21T06:28:37;3.93;;;3.83;;
19741;SDS011;10028;48.822;11.854;2023-02-21T06:31:05;3.43;;;3.33;;
19741;SDS011;10028;48.822;11.854;2023-02-21T06:33:32;3.60;;;3.50;;
19741;SDS011;10028;48.822;11.854;2023-02-21T06:36:19;3.60;;;3.50;;
19741;SDS011;10028;48.822;11.854;2023-02-21T06:38:48;3.20;;;3.10;;
19741;SDS011;10028;48.822;11.854;2023-02-21T06:41:27;3.20;;;3.10;;
19741;SDS011;10028;48.822;11.854;2023-02-21T06:43:55;3.10;;;3.00;;
19741;SDS011;10028;48.822;11.854;2023-02-21T06:46:24;4.00;;;3.90;;
19741;SDS011;10028;48.822;11.854;2023-02-21T06:48:53;3.20;;;3.10;;
19741;SDS011;10028;48.822;11.854;2023-02-21T06:51:20;4.47;;;4.27;;
19741;SDS011;10028;48.822;11.854;2023-02-21T06:53:55;4.80;;;4.60;;
19741;SDS011;10028;48.822;11.854;2023-02-21T06:56:23;3.53;;;3.43;;
19741;SDS011;10028;48.822;11.854;2023-02-21T06:58:50;3.40;;;3.30;;
19741;SDS011;10028;48.822;11.854;2023-02-21T07:01:18;3.40;;;3.30;;
19741;SDS011;10028;48.822;11.854;2023-02-21T07:03:45;4.07;;;3.97;;
19741;SDS011;10028;48.822;11.854;2023-02-21T07:06:13;4.13;;;3.93;;
19741;SDS011;10028;48.822;11.854;2023-02-21T07:08:40;3.60;;;3.50;;
19741;SDS011;10028;48.822;11.854;2023-02-21T07:11:07;3.50;;;3.40;;
19741;SDS011;10028;48.822;11.854;2023-02-21T07:13:35;4.13;;;4.00;;
19741;SDS011;10028;48.822;11.854;2023-02-21T07:16:02;3.43;;;3.33;;
19741;SDS011;10028;48.822;11.854;2023-02-21T07:18:30;3.27;;;3.17;;
19741;SDS011;10028;48.822;11.854;2023-02-21T07:20:57;3.23;;;3.13;;
19741;SDS011;10028;48.822;11.854;2023-02-21T07:23:24;3.27;;;3.17;;
19741;SDS011;10028;48.822;11.854;2023-02-21T07:25:51;3.43;;;3.33;;
19741;SDS011;10028;48.822;11.854;2023-02-21T07:28:19;4.60;;;4.40;;
19741;SDS011;10028;48.822;11.854;2023-02-21T07:30:49;3.30;;;3.20;;
19741;SDS011;10028;48.822;11.854;2023-02-21T07:33:16;3.30;;;3.20;;
19741;SDS011;10028;48.822;11.854;2023-02-21T07:35:43;3.17;;;3.07;;
19741;SDS011;10028;48.822;11.854;2023-02-21T07:38:27;3.33;;;3.23;;
19741;SDS011;10028;48.822;11.854;2023-02-21T07:40:59;4.03;;;3.93;;
19741;SDS011;10028;48.822;11.854;2023-02-21T07:43:28;4.33;;;4.13;;
19741;SDS011;10028;48.822;11.854;2023-02-21T07:45:56;3.20;;;3.10;;
19741;SDS011;10028;48.822;11.854;2023-02-21T07:48:23;3.60;;;3.43;;
19741;SDS011;10028;48.822;11.854;2023-02-21T07:50:51;3.00;;;2.90;;
19741;SDS011;10028;48.822;11.854;2023-02-21T07:53:18;3.63;;;3.53;;
19741;SDS011;10028;48.822;11.854;2023-02-21T07:55:45;3.47;;;3.37;;
19741;SDS011;10028;48.822;11.854;2023-02-21T07:58:13;3.63;;;3.53;;
19741;SDS011;10028;48.822;11.854;2023-02-21T08:00:40;3.50;;;3.40;;
19741;SDS011;10028;48.822;11.854;2023-02-21T08:03:08;3.87;;;3.67;;
19741;SDS011;10028;48.822;11.854;2023-02-21T08:05:38;2.90;;;2.80;;
19741;SDS011;10028;48.822;11.854;2023-02-21T08:08:07;3.13;;;3.03;;
19741;SDS011;10028;48.822;11.854;2023-02-21T08:10:34;3.67;;;3.57;;
19741;SDS011;10028;48.822;11.854;2023-02-21T08:13:02;3.50;;;3.40;;
19741;SDS011;10028;48.822;11.854;2023-02-21T08:15:30;3.40;;;3.30;;
19741;SDS011;10028;48.822;11.854;2023-02-21T08:17:57;2.90;;;2.80;;
19741;SDS011;10028;48.822;11.854;2023-02-21T08:20:25;2.90;;;2.80;;
19741;SDS011;10028;48.822;11.854;2023-02-21T08:22:52;3.20;;;3.10;;
19741;SDS011;10028;48.822;11.854;2023-02-21T08:25:19;3.17;;;3.07;;
19741;SDS011;10028;48.822;11.854;2023-02-21T08:27:46;5.63;;;4.87;;
19741;SDS011;10028;48.822;11.854;2023-02-21T08:30:18;4.10;;;3.90;;
19741;SDS011;10028;48.822;11.854;2023-02-21T08:32:46;3.23;;;3.13;;
19741;SDS011;10028;48.822;11.854;2023-02-21T08:35:14;2.90;;;2.80;;
19741;SDS011;10028;48.822;11.854;2023-02-21T08:37:47;3.50;;;3.40;;
19741;SDS011;10028;48.822;11.854;2023-02-21T08:40:18;3.90;;;3.70;;
19741;SDS011;10028;48.822;11.854;2023-02-21T08:42:49;3.10;;;3.00;;
19741;SDS011;10028;48.822;11.854;2023-02-21T08:45:18;2.80;;;2.70;;
19741;SDS011;10028;48.822;11.854;2023-02-21T08:47:46;5.77;;;5.40;;
19741;SDS011;10028;48.822;11.854;2023-02-21T08:50:14;2.50;;;2.40;;
19741;SDS011;10028;48.822;11.854;2023-02-21T08:52:41;3.20;;;3.10;;
19741;SDS011;10028;48.822;11.854;2023-02-21T08:55:08;2.80;;;2.70;;
19741;SDS011;10028;48.822;11.854;2023-02-21T08:57:35;3.93;;;3.70;;
19741;SDS011;10028;48.822;11.854;2023-02-21T09:00:03;2.70;;;2.60;;
19741;SDS011;10028;48.822;11.854;2023-02-21T09:02:32;2.80;;;2.70;;
19741;SDS011;10028;48.822;11.854;2023-02-21T09:04:59;2.70;;;2.60;;
19741;SDS011;10028;48.822;11.854;2023-02-21T09:07:26;2.70;;;2.60;;
19741;SDS011;10028;48.822;11.854;2023-02-21T09:09:56;2.83;;;2.73;;
19741;SDS011;10028;48.822;11.854;2023-02-21T09:12:26;2.70;;;2.60;;
19741;SDS011;10028;48.822;11.854;2023-02-21T09:14:53;2.80;;;2.70;;
19741;SDS011;10028;48.822;11.854;2023-02-21T09:17:20;2.70;;;2.60;;
19741;SDS011;10028;48.822;11.854;2023-02-21T09:19:48;3.43;;;3.23;;
19741;SDS011;10028;48.822;11.854;2023-02-21T09:22:15;2.97;;;2.87;;
19741;SDS011;10028;48.822;11.854;2023-02-21T09:24:43;2.80;;;2.70;;
19741;SDS011;10028;48.822;11.854;2023-02-21T09:27:10;3.00;;;2.90;;
19741;SDS011;10028;48.822;11.854;2023-02-21T09:29:38;2.80;;;2.70;;
19741;SDS011;10028;48.822;11.854;2023-02-21T09:32:12;3.17;;;3.07;;
19741;SDS011;10028;48.822;11.854;2023-02-21T09:34:39;2.73;;;2.63;;
19741;SDS011;10028;48.822;11.854;2023-02-21T09:37:06;2.80;;;2.70;;
19741;SDS011;10028;48.822;11.854;2023-02-21T09:39:35;2.93;;;2.83;;
19741;SDS011;10028;48.822;11.854;2023-02-21T09:42:04;2.90;;;2.80;;
19741;SDS011;10028;48.822;11.854;2023-02-21T09:44:31;2.57;;;2.47;;
19741;SDS011;10028;48.822;11.854;2023-02-21T09:46:59;2.60;;;2.50;;
19741;SDS011;10028;48.822;11.854;2023-02-21T09:49:33;2.90;;;2.80;;
19741;SDS011;10028;48.822;11.854;2023-02-21T09:52:04;2.73;;;2.63;;
19741;SDS011;10028;48.822;11.854;2023-02-21T09:54:33;2.80;;;2.70;;
19741;SDS011;10028;48.822;11.854;2023-02-21T09:57:05;2.70;;;2.60;;
19741;SDS011;10028;48.822;11.854;2023-02-21T09:59:37;2.40;;;2.30;;
19741;SDS011;10028;48.822;11.854;2023-02-21T10:04:58;2.33;;;2.23;;
19741;SDS011;10028;48.822;11.854;2023-02-21T10:10:29;3.07;;;2.97;;
19741;SDS011;10028;48.822;11.854;2023-02-21T10:16:27;3.00;;;2.90;;
19741;SDS011;10028;48.822;11.854;2023-02-21T10:19:15;2.37;;;2.27;;
19741;SDS011;10028;48.822;11.854;2023-02-21T10:21:56;2.40;;;2.30;;
19741;SDS011;10028;48.822;11.854;2023-02-21T10:24:24;2.63;;;2.53;;
19741;SDS011;10028;48.822;11.854;2023-02-21T10:29:50;2.30;;;2.20;;
19741;SDS011;10028;48.822;11.854;2023-02-21T10:32:36;2.40;;;2.30;;
19741;SDS011;10028;48.822;11.854;2023-02-21T10:35:03;2.33;;;2.23;;
19741;SDS011;10028;48.822;11.854;2023-02-21T10:37:44;2.40;;;2.30;;
19741;SDS011;10028;48.822;11.854;2023-02-21T10:42:48;2.50;;;2.40;;
19741;SDS011;10028;48.822;11.854;2023-02-21T10:45:20;2.10;;;2.10;;
19741;SDS011;10028;48.822;11.854;2023-02-21T10:47:57;2.40;;;2.30;;
19741;SDS011;10028;48.822;11.854;2023-02-21T10:53:39;2.17;;;2.13;;
19741;SDS011;10028;48.822;11.854;2023-02-21T10:58:46;2.00;;;2.00;;
19741;SDS011;10028;48.822;11.854;2023-02-21T11:03:53;2.40;;;2.30;;
19741;SDS011;10028;48.822;11.854;2023-02-21T11:08:56;2.30;;;2.23;;
19741;SDS011;10028;48.822;11.854;2023-02-21T11:11:31;2.37;;;2.27;;
19741;SDS011;10028;48.822;11.854;2023-02-21T11:17:03;2.00;;;2.00;;
19741;SDS011;10028;48.822;11.854;2023-02-21T11:19:52;2.00;;;2.00;;
19741;SDS011;10028;48.822;11.854;2023-02-21T11:28:36;2.00;;;2.00;;
19741;SDS011;10028;48.822;11.854;2023-02-21T11:30:48;2.20;;;2.20;;
19741;SDS011;10028;48.822;11.854;2023-02-21T11:33:28;2.00;;;2.00;;
19741;SDS011;10028;48.822;11.854;2023-02-21T11:36:07;2.00;;;2.00;;
19741;SDS011;10028;48.822;11.854;2023-02-21T11:38:43;1.80;;;1.80;;
19741;SDS011;10028;48.822;11.854;2023-02-21T11:41:37;19.73;;;3.37;;
19741;SDS011;10028;48.822;11.854;2023-02-21T11:44:21;2.10;;;2.10;;
19741;SDS011;10028;48.822;11.854;2023-02-21T11:49:38;1.90;;;1.90;;
19741;SDS011;10028;48.822;11.854;2023-02-21T11:55:13;2.00;;;2.00;;
19741;SDS011;10028;48.822;11.854;2023-02-21T12:06:40;1.83;;;1.83;;
19741;SDS011;10028;48.822;11.854;2023-02-21T12:09:31;1.60;;;1.60;;
19741;SDS011;10028;48.822;11.854;2023-02-21T12:12:05;1.70;;;1.70;;
19741;SDS011;10028;48.822;11.854;2023-02-21T12:20:27;2.07;;;2.07;;
19741;SDS011;10028;48.822;11.854;2023-02-21T12:25:57;1.90;;;1.90;;
19741;SDS011;10028;48.822;11.854;2023-02-21T12:36:43;2.10;;;2.10;;
19741;SDS011;10028;48.822;11.854;2023-02-21T12:39:40;1.70;;;1.70;;
19741;SDS011;10028;48.822;11.854;2023-02-21T12:42:35;1.93;;;1.93;;
19741;SDS011;10028;48.822;11.854;2023-02-21T12:51:14;1.70;;;1.70;;
19741;SDS011;10028;48.822;11.854;2023-02-21T12:56:18;1.70;;;1.70;;
19741;SDS011;10028;48.822;11.854;2023-02-21T12:58:58;1.83;;;1.83;;
19741;SDS011;10028;48.822;11.854;2023-02-21T13:01:33;1.80;;;1.80;;
19741;SDS011;10028;48.822;11.854;2023-02-21T13:07:27;1.87;;;1.87;;
19741;SDS011;10028;48.822;11.854;2023-02-21T13:12:59;1.70;;;1.70;;
19741;SDS011;10028;48.822;11.854;2023-02-21T13:15:39;1.77;;;1.77;;
19741;SDS011;10028;48.822;11.854;2023-02-21T13:18:22;1.77;;;1.77;;
19741;SDS011;10028;48.822;11.854;2023-02-21T13:23:55;2.40;;;2.30;;
19741;SDS011;10028;48.822;11.854;2023-02-21T13:29:16;1.83;;;1.83;;
19741;SDS011;10028;48.822;11.854;2023-02-21T13:32:11;2.03;;;2.03;;
19741;SDS011;10028;48.822;11.854;2023-02-21T13:34:46;1.73;;;1.73;;
19741;SDS011;10028;48.822;11.854;2023-02-21T13:37:18;1.70;;;1.70;;
19741;SDS011;10028;48.822;11.854;2023-02-21T13:39:51;2.10;;;2.03;;
19741;SDS011;10028;48.822;11.854;2023-02-21T13:42:22;1.50;;;1.50;;
19741;SDS011;10028;48.822;11.854;2023-02-21T13:55:34;1.60;;;1.60;;
19741;SDS011;10028;48.822;11.854;2023-02-21T14:03:02;1.60;;;1.60;;
19741;SDS011;10028;48.822;11.854;2023-02-21T14:08:28;1.50;;;1.50;;
19741;SDS011;10028;48.822;11.854;2023-02-21T14:18:50;1.60;;;1.60;;
19741;SDS011;10028;48.822;11.854;2023-02-21T14:21:23;1.67;;;1.67;;
19741;SDS011;10028;48.822;11.854;2023-02-21T14:34:53;1.63;;;1.63;;
19741;SDS011;10028;48.822;11.854;2023-02-21T14:37:41;1.50;;;1.50;;
19741;SDS011;10028;48.822;11.854;2023-02-21T14:40:36;1.60;;;1.60;;
19741;SDS011;10028;48.822;11.854;2023-02-21T14:43:21;1.60;;;1.60;;
19741;SDS011;10028;48.822;11.854;2023-02-21T14:59:50;1.80;;;1.80;;
19741;SDS011;10028;48.822;11.854;2023-02-21T15:05:52;1.80;;;1.80;;
19741;SDS011;10028;48.822;11.854;2023-02-21T15:08:28;1.60;;;1.60;;
19741;SDS011;10028;48.822;11.854;2023-02-21T15:11:25;1.70;;;1.70;;
19741;SDS011;10028;48.822;11.854;2023-02-21T15:16:56;1.83;;;1.83;;
19741;SDS011;10028;48.822;11.854;2023-02-21T15:19:29;1.80;;;1.80;;
19741;SDS011;10028;48.822;11.854;2023-02-21T15:24:40;1.60;;;1.60;;
19741;SDS011;10028;48.822;11.854;2023-02-21T15:27:08;1.87;;;1.87;;
19741;SDS011;10028;48.822;11.854;2023-02-21T15:29:37;1.60;;;1.60;;
19741;SDS011;10028;48.822;11.854;2023-02-21T15:32:05;1.60;;;1.60;;
19741;SDS011;10028;48.822;11.854;2023-02-21T15:34:42;1.60;;;1.60;;
19741;SDS011;10028;48.822;11.854;2023-02-21T15:39:39;1.63;;;1.63;;
19741;SDS011;10028;48.822;11.854;2023-02-21T15:42:09;1.97;;;1.90;;
19741;SDS011;10028;48.822;11.854;2023-02-21T15:44:38;1.83;;;1.83;;
19741;SDS011;10028;48.822;11.854;2023-02-21T15:47:17;1.70;;;1.70;;
19741;SDS011;10028;48.822;11.854;2023-02-21T15:52:40;1.60;;;1.60;;
19741;SDS011;10028;48.822;11.854;2023-02-21T15:57:44;1.50;;;1.50;;
19741;SDS011;10028;48.822;11.854;2023-02-21T16:00:44;1.53;;;1.53;;
19741;SDS011;10028;48.822;11.854;2023-02-21T16:05:55;2.90;;;2.80;;
19741;SDS011;10028;48.822;11.854;2023-02-21T16:08:37;1.50;;;1.50;;
19741;SDS011;10028;48.822;11.854;2023-02-21T16:11:16;1.50;;;1.50;;
19741;SDS011;10028;48.822;11.854;2023-02-21T16:13:43;1.40;;;1.40;;
19741;SDS011;10028;48.822;11.854;2023-02-21T16:16:11;1.60;;;1.60;;
19741;SDS011;10028;48.822;11.854;2023-02-21T16:18:38;1.50;;;1.50;;
19741;SDS011;10028;48.822;11.854;2023-02-21T16:21:06;1.60;;;1.60;;
19741;SDS011;10028;48.822;11.854;2023-02-21T16:23:46;2.17;;;2.07;;
19741;SDS011;10028;48.822;11.854;2023-02-21T16:28:42;2.47;;;2.37;;
19741;SDS011;10028;48.822;11.854;2023-02-21T16:31:15;1.80;;;1.80;;
19741;SDS011;10028;48.822;11.854;2023-02-21T16:33:49;1.60;;;1.60;;
19741;SDS011;10028;48.822;11.854;2023-02-21T16:36:21;1.97;;;1.97;;
19741;SDS011;10028;48.822;11.854;2023-02-21T16:38:56;1.83;;;1.80;;
19741;SDS011;10028;48.822;11.854;2023-02-21T16:41:24;1.80;;;1.80;;
19741;SDS011;10028;48.822;11.854;2023-02-21T16:43:51;2.43;;;2.33;;
19741;SDS011;10028;48.822;11.854;2023-02-21T16:46:23;3.47;;;3.27;;
19741;SDS011;10028;48.822;11.854;2023-02-21T16:48:55;2.53;;;2.43;;
19741;SDS011;10028;48.822;11.854;2023-02-21T16:51:23;3.80;;;2.83;;
19741;SDS011;10028;48.822;11.854;2023-02-21T16:53:50;2.17;;;2.13;;
19741;SDS011;10028;48.822;11.854;2023-02-21T16:56:17;1.30;;;1.30;;
19741;SDS011;10028;48.822;11.854;2023-02-21T16:58:48;2.07;;;2.07;;
19741;SDS011;10028;48.822;11.854;2023-02-21T17:01:25;2.27;;;2.17;;
19741;SDS011;10028;48.822;11.854;2023-02-21T17:03:53;2.27;;;2.17;;
19741;SDS011;10028;48.822;11.854;2023-02-21T17:06:21;1.60;;;1.60;;
19741;SDS011;10028;48.822;11.854;2023-02-21T17:08:50;1.83;;;1.83;;
19741;SDS011;10028;48.822;11.854;2023-02-21T17:11:17;1.70;;;1.70;;
19741;SDS011;10028;48.822;11.854;2023-02-21T17:13:44;1.50;;;1.50;;
19741;SDS011;10028;48.822;11.854;2023-02-21T17:16:12;1.60;;;1.60;;
19741;SDS011;10028;48.822;11.854;2023-02-21T17:18:39;1.60;;;1.60;;
19741;SDS011;10028;48.822;11.854;2023-02-21T17:21:06;1.77;;;1.77;;
19741;SDS011;10028;48.822;11.854;2023-02-21T17:23:34;1.90;;;1.90;;
19741;SDS011;10028;48.822;11.854;2023-02-21T17:26:01;1.70;;;1.70;;
19741;SDS011;10028;48.822;11.854;2023-02-21T17:28:28;2.43;;;2.33;;
19741;SDS011;10028;48.822;11.854;2023-02-21T17:30:56;2.63;;;2.53;;
19741;SDS011;10028;48.822;11.854;2023-02-21T17:33:23;2.17;;;2.17;;
19741;SDS011;10028;48.822;11.854;2023-02-21T17:35:53;2.33;;;2.23;;
19741;SDS011;10028;48.822;11.854;2023-02-21T17:38:20;1.80;;;1.80;;
19741;SDS011;10028;48.822;11.854;2023-02-21T17:40:47;2.40;;;2.30;;
19741;SDS011;10028;48.822;11.854;2023-02-21T17:43:15;1.70;;;1.70;;
19741;SDS011;10028;48.822;11.854;2023-02-21T17:45:42;2.30;;;2.20;;
19741;SDS011;10028;48.822;11.854;2023-02-21T17:48:11;1.80;;;1.80;;
19741;SDS011;10028;48.822;11.854;2023-02-21T17:50:38;1.97;;;1.97;;
19741;SDS011;10028;48.822;11.854;2023-02-21T17:53:05;2.13;;;2.13;;
19741;SDS011;10028;48.822;11.854;2023-02-21T17:55:33;2.30;;;2.20;;
19741;SDS011;10028;48.822;11.854;2023-02-21T17:58:01;1.80;;;1.80;;
19741;SDS011;10028;48.822;11.854;2023-02-21T18:00:28;1.90;;;1.90;;
19741;SDS011;10028;48.822;11.854;2023-02-21T18:03:00;1.80;;;1.80;;
19741;SDS011;10028;48.822;11.854;2023-02-21T18:05:29;1.90;;;1.90;;
19741;SDS011;10028;48.822;11.854;2023-02-21T18:07:57;1.97;;;1.97;;
19741;SDS011;10028;48.822;11.854;2023-02-21T18:10:24;2.00;;;2.00;;
19741;SDS011;10028;48.822;11.854;2023-02-21T18:12:52;1.90;;;1.90;;
19741;SDS011;10028;48.822;11.854;2023-02-21T18:15:20;2.83;;;2.73;;
19741;SDS011;10028;48.822;11.854;2023-02-21T18:17:49;2.63;;;2.53;;
19741;SDS011;10028;48.822;11.854;2023-02-21T18:20:17;2.20;;;2.20;;
19741;SDS011;10028;48.822;11.854;2023-02-21T18:22:44;1.97;;;1.97;;
19741;SDS011;10028;48.822;11.854;2023-02-21T18:25:12;3.03;;;2.93;;